Private Wetterstation Sandau
Wetterdaten: Freitag, 25.05.2012
Datum Zeit Temp. A. Feuchte A. Luftdruck Regen Wind Richtung Richtung Taupunkt Windchill
25.05.2012 00:01 14,9 C 44 % 1030,9 hPa 0,0 l/m 5,8 km/h (2 Bft) O-NO 67 2,8 C 14,9 C
25.05.2012 00:06 14,8 C 44 % 1030,9 hPa 0,0 l/m 8,6 km/h (2 Bft) O 90 2,7 C 14,8 C
25.05.2012 00:11 14,7 C 44 % 1030,8 hPa 0,0 l/m 8,6 km/h (2 Bft) O-NO 67 2,6 C 14,7 C
25.05.2012 00:16 14,6 C 45 % 1030,8 hPa 0,0 l/m 8,3 km/h (2 Bft) O-NO 67 2,8 C 14,6 C
25.05.2012 00:21 14,5 C 45 % 1030,9 hPa 0,0 l/m 7,6 km/h (2 Bft) O-NO 67 2,7 C 14,5 C
25.05.2012 00:26 14,4 C 45 % 1030,9 hPa 0,0 l/m 12,6 km/h (3 Bft) NO 45 2,6 C 14,4 C
25.05.2012 00:31 14,3 C 45 % 1030,8 hPa 0,0 l/m 5,0 km/h (1 Bft) NO 45 2,5 C 14,3 C
25.05.2012 00:36 14,3 C 46 % 1030,9 hPa 0,0 l/m 7,2 km/h (2 Bft) N-NO 22 2,8 C 14,3 C
25.05.2012 00:41 14,2 C 46 % 1030,8 hPa 0,0 l/m 6,1 km/h (2 Bft) O-NO 67 2,8 C 14,2 C
25.05.2012 00:46 14,1 C 46 % 1030,9 hPa 0,0 l/m 6,1 km/h (2 Bft) O 90 2,7 C 14,1 C
25.05.2012 00:51 14,1 C 46 % 1030,8 hPa 0,0 l/m 8,3 km/h (2 Bft) O 90 2,7 C 14,1 C
25.05.2012 00:56 13,9 C 46 % 1030,8 hPa 0,0 l/m 7,9 km/h (2 Bft) NO 45 2,5 C 13,9 C
25.05.2012 01:01 13,9 C 47 % 1030,7 hPa 0,0 l/m 7,2 km/h (2 Bft) O 90 2,8 C 13,9 C
25.05.2012 01:06 13,8 C 47 % 1030,9 hPa 0,0 l/m 8,6 km/h (2 Bft) O-NO 67 2,7 C 13,8 C
25.05.2012 01:11 13,8 C 47 % 1030,8 hPa 0,0 l/m 6,5 km/h (2 Bft) N-NO 22 2,7 C 13,8 C
25.05.2012 01:16 13,8 C 47 % 1030,9 hPa 0,0 l/m 7,9 km/h (2 Bft) NO 45 2,7 C 13,8 C
25.05.2012 01:21 13,6 C 47 % 1030,8 hPa 0,0 l/m 11,9 km/h (2 Bft) O 90 2,5 C 13,6 C
25.05.2012 01:26 13,6 C 48 % 1030,8 hPa 0,0 l/m 4,0 km/h (1 Bft) N-NO 22 2,8 C 13,6 C
25.05.2012 01:31 13,5 C 48 % 1030,9 hPa 0,0 l/m 6,8 km/h (2 Bft) NO 45 2,7 C 13,5 C
25.05.2012 01:36 13,4 C 48 % 1030,9 hPa 0,0 l/m 7,6 km/h (2 Bft) O-NO 67 2,6 C 13,4 C
25.05.2012 01:41 13,4 C 48 % 1030,9 hPa 0,0 l/m 0,0 km/h (0 Bft) O-NO 67 2,6 C 13,4 C
25.05.2012 01:46 13,4 C 48 % 1030,9 hPa 0,0 l/m 6,8 km/h (2 Bft) NO 45 2,6 C 13,4 C
25.05.2012 01:51 13,4 C 48 % 1030,9 hPa 0,0 l/m 2,2 km/h (1 Bft) O 90 2,6 C 13,4 C
25.05.2012 01:56 13,4 C 48 % 1031,0 hPa 0,0 l/m 6,1 km/h (2 Bft) NO 45 2,6 C 13,4 C
25.05.2012 02:01 13,4 C 48 % 1030,9 hPa 0,0 l/m 5,0 km/h (1 Bft) NO 45 2,6 C 13,4 C
25.05.2012 02:06 13,3 C 48 % 1030,8 hPa 0,0 l/m 3,6 km/h (1 Bft) O-NO 67 2,5 C 13,3 C
25.05.2012 02:11 13,3 C 48 % 1031,0 hPa 0,0 l/m 7,6 km/h (2 Bft) O-NO 67 2,5 C 13,3 C
25.05.2012 02:16 13,3 C 48 % 1030,8 hPa 0,0 l/m 1,8 km/h (1 Bft) O 90 2,5 C 13,3 C
25.05.2012 02:21 13,3 C 48 % 1030,9 hPa 0,0 l/m 2,5 km/h (1 Bft) N-NO 22 2,5 C 13,3 C
25.05.2012 02:26 13,3 C 48 % 1030,8 hPa 0,0 l/m 4,3 km/h (1 Bft) NO 45 2,5 C 13,3 C
25.05.2012 02:31 13,2 C 48 % 1030,8 hPa 0,0 l/m 2,2 km/h (1 Bft) N-NO 22 2,4 C 13,2 C
25.05.2012 02:36 13,2 C 48 % 1030,8 hPa 0,0 l/m 4,7 km/h (1 Bft) O-NO 67 2,4 C 13,2 C
25.05.2012 02:41 13,1 C 49 % 1030,6 hPa 0,0 l/m 4,7 km/h (1 Bft) NO 45 2,6 C 13,1 C
25.05.2012 02:46 13,1 C 48 % 1030,8 hPa 0,0 l/m 1,8 km/h (1 Bft) O-SO 112 2,3 C 13,1 C
25.05.2012 02:51 13,0 C 48 % 1030,8 hPa 0,0 l/m 8,3 km/h (2 Bft) NO 45 2,3 C 13,0 C
25.05.2012 02:56 12,9 C 49 % 1030,7 hPa 0,0 l/m 7,2 km/h (2 Bft) N-NO 22 2,5 C 12,9 C
25.05.2012 03:01 12,9 C 49 % 1030,6 hPa 0,0 l/m 4,0 km/h (1 Bft) N-NO 22 2,5 C 12,9 C
25.05.2012 03:06 12,9 C 49 % 1030,8 hPa 0,0 l/m 5,8 km/h (2 Bft) N-NO 22 2,5 C 12,9 C
25.05.2012 03:11 12,9 C 49 % 1030,6 hPa 0,0 l/m 5,4 km/h (1 Bft) N-NO 22 2,5 C 12,9 C
25.05.2012 03:16 12,8 C 50 % 1030,8 hPa 0,0 l/m 6,5 km/h (2 Bft) N-NO 22 2,6 C 12,8 C
25.05.2012 03:21 12,5 C 50 % 1030,7 hPa 0,0 l/m 0,0 km/h (0 Bft) N 360 2,4 C 12,5 C
25.05.2012 03:26 12,4 C 50 % 1030,8 hPa 0,0 l/m 0,0 km/h (0 Bft) N-NO 22 2,3 C 12,4 C
25.05.2012 03:31 12,4 C 50 % 1030,9 hPa 0,0 l/m 0,0 km/h (0 Bft) N 360 2,3 C 12,4 C
25.05.2012 03:36 12,5 C 50 % 1030,9 hPa 0,0 l/m 0,0 km/h (0 Bft) N-NO 22 2,4 C 12,5 C
25.05.2012 03:41 12,6 C 50 % 1030,8 hPa 0,0 l/m 1,4 km/h (1 Bft) NO 45 2,5 C 12,6 C
25.05.2012 03:46 12,6 C 50 % 1030,7 hPa 0,0 l/m 0,0 km/h (0 Bft) NO 45 2,5 C 12,6 C
25.05.2012 03:51 12,6 C 50 % 1030,7 hPa 0,0 l/m 1,4 km/h (1 Bft) N-NO 22 2,5 C 12,6 C
25.05.2012 03:56 12,5 C 51 % 1030,7 hPa 0,0 l/m 2,2 km/h (1 Bft) N-NO 22 2,6 C 12,5 C
25.05.2012 04:01 12,4 C 51 % 1030,7 hPa 0,0 l/m 0,0 km/h (0 Bft) N-NO 22 2,6 C 12,4 C
25.05.2012 04:06 12,4 C 52 % 1030,5 hPa 0,0 l/m 0,0 km/h (0 Bft) N-NO 22 2,8 C 12,4 C
25.05.2012 04:11 12,3 C 52 % 1030,7 hPa 0,0 l/m 2,9 km/h (1 Bft) N-NO 22 2,7 C 12,3 C
25.05.2012 04:16 12,2 C 52 % 1030,7 hPa 0,0 l/m 0,0 km/h (0 Bft) NO 45 2,6 C 12,2 C
25.05.2012 04:21 12,1 C 53 % 1030,7 hPa 0,0 l/m 2,5 km/h (1 Bft) N-NO 22 2,8 C 12,1 C
25.05.2012 04:26 12,1 C 53 % 1030,7 hPa 0,0 l/m 2,2 km/h (1 Bft) N-NO 22 2,8 C 12,1 C
25.05.2012 04:31 11,9 C 53 % 1030,6 hPa 0,0 l/m 0,0 km/h (0 Bft) N-NO 22 2,6 C 11,9 C
25.05.2012 04:36 11,9 C 53 % 1030,4 hPa 0,0 l/m 0,0 km/h (0 Bft) N-NO 22 2,6 C 11,9 C
25.05.2012 04:41 11,8 C 54 % 1030,4 hPa 0,0 l/m 3,6 km/h (1 Bft) N-NO 22 2,8 C 11,8 C
25.05.2012 04:46 11,5 C 55 % 1030,4 hPa 0,0 l/m 2,5 km/h (1 Bft) N-NO 22 2,8 C 11,5 C
25.05.2012 04:51 11,4 C 55 % 1030,5 hPa 0,0 l/m 3,6 km/h (1 Bft) NO 45 2,7 C 11,4 C
25.05.2012 04:56 11,2 C 56 % 1030,6 hPa 0,0 l/m 5,0 km/h (1 Bft) N-NO 22 2,8 C 11,2 C
25.05.2012 05:01 11,0 C 56 % 1030,6 hPa 0,0 l/m 2,2 km/h (1 Bft) N-NO 22 2,6 C 11,0 C
25.05.2012 05:06 10,9 C 57 % 1030,7 hPa 0,0 l/m 2,5 km/h (1 Bft) N-NO 22 2,7 C 10,9 C
25.05.2012 05:11 10,8 C 57 % 1030,8 hPa 0,0 l/m 2,2 km/h (1 Bft) NO 45 2,6 C 10,8 C
25.05.2012 05:16 10,8 C 58 % 1030,7 hPa 0,0 l/m 3,2 km/h (1 Bft) N-NO 22 2,9 C 10,8 C
25.05.2012 05:21 10,7 C 58 % 1030,6 hPa 0,0 l/m 3,2 km/h (1 Bft) N-NO 22 2,8 C 10,7 C
25.05.2012 05:26 10,8 C 58 % 1030,6 hPa 0,0 l/m 5,0 km/h (1 Bft) N-NO 22 2,9 C 10,8 C
25.05.2012 05:31 10,8 C 58 % 1030,6 hPa 0,0 l/m 2,9 km/h (1 Bft) NO 45 2,9 C 10,8 C
25.05.2012 05:36 10,8 C 59 % 1030,6 hPa 0,0 l/m 9,0 km/h (2 Bft) N-NO 22 3,1 C 10,8 C
25.05.2012 05:41 11,1 C 59 % 1030,7 hPa 0,0 l/m 3,6 km/h (1 Bft) N-NO 22 3,4 C 11,1 C
25.05.2012 05:46 11,6 C 58 % 1030,7 hPa 0,0 l/m 5,0 km/h (1 Bft) NO 45 3,6 C 11,6 C
25.05.2012 05:51 12,1 C 58 % 1030,7 hPa 0,0 l/m 4,3 km/h (1 Bft) NO 45 4,1 C 12,1 C
25.05.2012 05:56 12,6 C 56 % 1030,6 hPa 0,0 l/m 4,0 km/h (1 Bft) O-NO 67 4,1 C 12,6 C
25.05.2012 06:01 12,9 C 55 % 1030,7 hPa 0,0 l/m 5,0 km/h (1 Bft) NO 45 4,1 C 12,9 C
25.05.2012 06:06 13,2 C 55 % 1030,7 hPa 0,0 l/m 2,5 km/h (1 Bft) N-NO 22 4,4 C 13,2 C
25.05.2012 06:11 13,4 C 54 % 1030,7 hPa 0,0 l/m 4,3 km/h (1 Bft) NO 45 4,3 C 13,4 C
25.05.2012 06:16 13,6 C 54 % 1030,7 hPa 0,0 l/m 4,0 km/h (1 Bft) O-NO 67 4,5 C 13,6 C
25.05.2012 06:21 13,8 C 53 % 1030,7 hPa 0,0 l/m 2,9 km/h (1 Bft) O 90 4,4 C 13,8 C
25.05.2012 06:26 13,9 C 53 % 1030,7 hPa 0,0 l/m 7,6 km/h (2 Bft) N-NO 22 4,5 C 13,9 C
25.05.2012 06:31 13,9 C 53 % 1030,7 hPa 0,0 l/m 4,7 km/h (1 Bft) O-SO 112 4,5 C 13,9 C
25.05.2012 06:36 14,1 C 53 % 1030,6 hPa 0,0 l/m 3,6 km/h (1 Bft) O 90 4,7 C 14,1 C
25.05.2012 06:41 14,0 C 52 % 1030,5 hPa 0,0 l/m 1,8 km/h (1 Bft) NO 45 4,3 C 14,0 C
25.05.2012 06:46 14,0 C 53 % 1030,6 hPa 0,0 l/m 3,2 km/h (1 Bft) O-NO 67 4,6 C 14,0 C
25.05.2012 06:51 14,1 C 52 % 1030,6 hPa 0,0 l/m 4,3 km/h (1 Bft) O-NO 67 4,4 C 14,1 C
25.05.2012 06:56 14,1 C 52 % 1030,6 hPa 0,0 l/m 3,2 km/h (1 Bft) NO 45 4,4 C 14,1 C
25.05.2012 07:01 14,2 C 52 % 1030,6 hPa 0,0 l/m 4,7 km/h (1 Bft) NO 45 4,5 C 14,2 C
25.05.2012 07:06 14,4 C 52 % 1030,6 hPa 0,0 l/m 7,6 km/h (2 Bft) O-NO 67 4,7 C 14,4 C
25.05.2012 07:11 14,5 C 52 % 1030,6 hPa 0,0 l/m 4,7 km/h (1 Bft) O-NO 67 4,8 C 14,5 C
25.05.2012 07:16 14,6 C 52 % 1030,7 hPa 0,0 l/m 7,2 km/h (2 Bft) O 90 4,9 C 14,6 C
25.05.2012 07:21 14,6 C 51 % 1030,8 hPa 0,0 l/m 8,6 km/h (2 Bft) N-NO 22 4,6 C 14,6 C
25.05.2012 07:26 14,8 C 52 % 1030,7 hPa 0,0 l/m 4,7 km/h (1 Bft) O-NO 67 5,0 C 14,8 C
25.05.2012 07:31 14,9 C 51 % 1030,7 hPa 0,0 l/m 4,7 km/h (1 Bft) NO 45 4,9 C 14,9 C
25.05.2012 07:36 15,1 C 50 % 1030,8 hPa 0,0 l/m 4,0 km/h (1 Bft) O 90 4,8 C 15,1 C
25.05.2012 07:41 14,9 C 50 % 1030,8 hPa 0,0 l/m 12,2 km/h (2 Bft) O-NO 67 4,6 C 14,9 C
25.05.2012 07:46 14,9 C 50 % 1030,7 hPa 0,0 l/m 3,6 km/h (1 Bft) O-NO 67 4,6 C 14,9 C
25.05.2012 07:51 15,2 C 50 % 1030,8 hPa 0,0 l/m 1,8 km/h (1 Bft) O-NO 67 4,8 C 15,2 C
25.05.2012 07:56 15,4 C 49 % 1030,8 hPa 0,0 l/m 8,3 km/h (2 Bft) O-NO 67 4,7 C 15,4 C
25.05.2012 08:01 15,5 C 49 % 1030,6 hPa 0,0 l/m 7,6 km/h (2 Bft) O-NO 67 4,8 C 15,5 C
25.05.2012 08:06 15,5 C 49 % 1030,6 hPa 0,0 l/m 4,3 km/h (1 Bft) O-NO 67 4,8 C 15,5 C
25.05.2012 08:11 15,6 C 49 % 1030,7 hPa 0,0 l/m 4,0 km/h (1 Bft) NO 45 4,9 C 15,6 C
25.05.2012 08:16 15,8 C 48 % 1030,7 hPa 0,0 l/m 3,2 km/h (1 Bft) O-NO 67 4,8 C 15,8 C
25.05.2012 08:21 15,9 C 48 % 1030,7 hPa 0,0 l/m 3,6 km/h (1 Bft) O-SO 112 4,9 C 15,9 C
25.05.2012 08:26 16,1 C 47 % 1030,7 hPa 0,0 l/m 2,9 km/h (1 Bft) O 90 4,8 C 16,1 C
25.05.2012 08:31 16,3 C 47 % 1030,7 hPa 0,0 l/m 5,8 km/h (2 Bft) O 90 5,0 C 16,3 C
25.05.2012 08:36 16,5 C 45 % 1030,5 hPa 0,0 l/m 3,6 km/h (1 Bft) O-SO 112 4,5 C 16,5 C
25.05.2012 08:41 16,8 C 45 % 1030,6 hPa 0,0 l/m 6,5 km/h (2 Bft) NO 45 4,8 C 16,8 C
25.05.2012 08:46 16,9 C 44 % 1030,6 hPa 0,0 l/m 7,9 km/h (2 Bft) O 90 4,6 C 16,9 C
25.05.2012 08:51 16,9 C 43 % 1030,6 hPa 0,0 l/m 6,1 km/h (2 Bft) O-SO 112 4,2 C 16,9 C
25.05.2012 08:56 17,0 C 42 % 1030,5 hPa 0,0 l/m 4,7 km/h (1 Bft) O 90 4,0 C 17,0 C
25.05.2012 09:01 17,1 C 43 % 1030,5 hPa 0,0 l/m 9,4 km/h (2 Bft) O 90 4,4 C 17,1 C
25.05.2012 09:06 17,3 C 42 % 1030,5 hPa 0,0 l/m 6,5 km/h (2 Bft) O 90 4,3 C 17,3 C
25.05.2012 09:11 17,4 C 42 % 1030,5 hPa 0,0 l/m 2,2 km/h (1 Bft) O-SO 112 4,4 C 17,4 C
25.05.2012 09:16 17,5 C 41 % 1030,5 hPa 0,0 l/m 6,1 km/h (2 Bft) O-NO 67 4,1 C 17,5 C
25.05.2012 09:21 17,6 C 41 % 1030,5 hPa 0,0 l/m 7,6 km/h (2 Bft) O-SO 112 4,2 C 17,6 C
25.05.2012 09:26 17,8 C 41 % 1030,5 hPa 0,0 l/m 5,0 km/h (1 Bft) SO 135 4,4 C 17,8 C
25.05.2012 09:31 18,0 C 41 % 1030,4 hPa 0,0 l/m 6,8 km/h (2 Bft) O 90 4,6 C 18,0 C
25.05.2012 09:36 18,1 C 41 % 1030,5 hPa 0,0 l/m 6,1 km/h (2 Bft) O-NO 67 4,6 C 18,1 C
25.05.2012 09:41 18,3 C 40 % 1030,3 hPa 0,0 l/m 5,8 km/h (2 Bft) SO 135 4,5 C 18,3 C
25.05.2012 09:46 18,4 C 39 % 1030,4 hPa 0,0 l/m 9,4 km/h (2 Bft) O 90 4,2 C 18,4 C
25.05.2012 09:51 18,6 C 39 % 1030,5 hPa 0,0 l/m 11,2 km/h (2 Bft) O 90 4,4 C 18,6 C
25.05.2012 09:56 18,6 C 39 % 1030,5 hPa 0,0 l/m 8,6 km/h (2 Bft) O-SO 112 4,4 C 18,6 C
25.05.2012 10:01 18,8 C 38 % 1030,5 hPa 0,0 l/m 5,8 km/h (2 Bft) NO 45 4,2 C 18,8 C
25.05.2012 10:06 18,8 C 38 % 1030,4 hPa 0,0 l/m 8,6 km/h (2 Bft) O 90 4,2 C 18,8 C
25.05.2012 10:11 18,9 C 38 % 1030,5 hPa 0,0 l/m 5,0 km/h (1 Bft) O 90 4,3 C 18,9 C
25.05.2012 10:16 19,0 C 37 % 1030,3 hPa 0,0 l/m 1,4 km/h (1 Bft) NO 45 4,0 C 19,0 C
25.05.2012 10:21 19,1 C 37 % 1030,3 hPa 0,0 l/m 2,9 km/h (1 Bft) SO 135 4,1 C 19,1 C
25.05.2012 10:26 19,4 C 37 % 1030,3 hPa 0,0 l/m 9,4 km/h (2 Bft) N 360 4,3 C 19,4 C
25.05.2012 10:31 19,5 C 36 % 1030,3 hPa 0,0 l/m 9,7 km/h (2 Bft) O 90 4,0 C 19,5 C
25.05.2012 10:36 19,6 C 36 % 1030,3 hPa 0,0 l/m 4,3 km/h (1 Bft) O-SO 112 4,1 C 19,6 C
25.05.2012 10:41 19,8 C 35 % 1030,3 hPa 0,0 l/m 5,8 km/h (2 Bft) O-NO 67 3,9 C 19,8 C
25.05.2012 10:46 19,9 C 34 % 1030,3 hPa 0,0 l/m 5,0 km/h (1 Bft) S-SO 157 3,6 C 19,9 C
25.05.2012 10:51 20,2 C 34 % 1030,2 hPa 0,0 l/m 9,7 km/h (2 Bft) O-SO 112 3,8 C 20,2 C
25.05.2012 10:56 20,2 C 34 % 1030,2 hPa 0,0 l/m 10,1 km/h (2 Bft) O-SO 112 3,8 C 20,2 C
25.05.2012 11:01 20,1 C 33 % 1030,1 hPa 0,0 l/m 12,2 km/h (2 Bft) O-NO 67 3,3 C 20,1 C
25.05.2012 11:06 20,2 C 33 % 1030,1 hPa 0,0 l/m 9,0 km/h (2 Bft) O-SO 112 3,4 C 20,2 C
25.05.2012 11:11 20,4 C 33 % 1030,1 hPa 0,0 l/m 2,5 km/h (1 Bft) SO 135 3,6 C 20,4 C
25.05.2012 11:16 20,5 C 33 % 1029,9 hPa 0,0 l/m 9,4 km/h (2 Bft) O-SO 112 3,7 C 20,5 C
25.05.2012 11:21 20,8 C 33 % 1030,0 hPa 0,0 l/m 8,6 km/h (2 Bft) O 90 3,9 C 20,8 C
25.05.2012 11:26 20,9 C 33 % 1030,1 hPa 0,0 l/m 12,2 km/h (2 Bft) N-NO 22 4,0 C 20,9 C
25.05.2012 11:31 20,9 C 33 % 1030,0 hPa 0,0 l/m 5,0 km/h (1 Bft) NO 45 4,0 C 20,9 C
25.05.2012 11:36 21,1 C 33 % 1029,9 hPa 0,0 l/m 4,7 km/h (1 Bft) O-NO 67 4,2 C 21,1 C
25.05.2012 11:41 21,0 C 32 % 1029,9 hPa 0,0 l/m 5,4 km/h (1 Bft) O-SO 112 3,7 C 21,0 C
25.05.2012 11:46 21,1 C 32 % 1029,8 hPa 0,0 l/m 4,7 km/h (1 Bft) O-NO 67 3,8 C 21,1 C
25.05.2012 11:51 21,3 C 31 % 1029,8 hPa 0,0 l/m 3,2 km/h (1 Bft) O 90 3,5 C 21,3 C
25.05.2012 11:56 21,3 C 31 % 1029,7 hPa 0,0 l/m 3,6 km/h (1 Bft) O 90 3,5 C 21,3 C
25.05.2012 12:01 21,4 C 32 % 1029,7 hPa 0,0 l/m 3,6 km/h (1 Bft) O-NO 67 4,0 C 21,4 C
25.05.2012 12:06 21,6 C 31 % 1029,6 hPa 0,0 l/m 3,6 km/h (1 Bft) O-SO 112 3,7 C 21,6 C
25.05.2012 12:11 21,8 C 31 % 1029,5 hPa 0,0 l/m 11,9 km/h (2 Bft) SO 135 3,9 C 21,8 C
25.05.2012 12:16 21,8 C 31 % 1029,5 hPa 0,0 l/m 3,6 km/h (1 Bft) NO 45 3,9 C 21,8 C
25.05.2012 12:21 22,0 C 31 % 1029,4 hPa 0,0 l/m 4,0 km/h (1 Bft) O-SO 112 4,1 C 22,0 C
25.05.2012 12:26 22,2 C 30 % 1029,4 hPa 0,0 l/m 8,6 km/h (2 Bft) O-SO 112 3,8 C 22,2 C
25.05.2012 12:31 22,2 C 30 % 1029,4 hPa 0,0 l/m 1,4 km/h (1 Bft) O 90 3,8 C 22,2 C
25.05.2012 12:36 22,2 C 30 % 1029,5 hPa 0,0 l/m 8,3 km/h (2 Bft) SO 135 3,8 C 22,2 C
25.05.2012 12:41 22,3 C 30 % 1029,6 hPa 0,0 l/m 5,0 km/h (1 Bft) O-SO 112 3,9 C 22,3 C
25.05.2012 12:46 22,4 C 30 % 1029,4 hPa 0,0 l/m 4,7 km/h (1 Bft) O 90 4,0 C 22,4 C
25.05.2012 12:51 22,6 C 30 % 1029,3 hPa 0,0 l/m 6,1 km/h (2 Bft) O-NO 67 4,1 C 22,6 C
25.05.2012 12:56 22,9 C 29 % 1029,2 hPa 0,0 l/m 11,2 km/h (2 Bft) O-SO 112 3,9 C 22,9 C
25.05.2012 13:01 22,8 C 29 % 1029,2 hPa 0,0 l/m 19,1 km/h (3 Bft) O-SO 112 3,8 C 22,8 C
25.05.2012 13:06 22,9 C 29 % 1029,1 hPa 0,0 l/m 5,0 km/h (1 Bft) O 90 3,9 C 22,9 C
25.05.2012 13:11 23,1 C 29 % 1029,0 hPa 0,0 l/m 6,8 km/h (2 Bft) O-SO 112 4,1 C 23,1 C
25.05.2012 13:16 23,2 C 29 % 1029,0 hPa 0,0 l/m 9,0 km/h (2 Bft) O-SO 112 4,2 C 23,2 C
25.05.2012 13:21 23,2 C 28 % 1029,0 hPa 0,0 l/m 8,6 km/h (2 Bft) O-SO 112 3,7 C 23,2 C
25.05.2012 13:26 23,3 C 28 % 1029,0 hPa 0,0 l/m 5,0 km/h (1 Bft) O-SO 112 3,8 C 23,3 C
25.05.2012 13:31 23,4 C 28 % 1028,8 hPa 0,0 l/m 12,6 km/h (3 Bft) O-NO 67 3,8 C 23,4 C
25.05.2012 13:36 23,5 C 28 % 1028,7 hPa 0,0 l/m 4,0 km/h (1 Bft) NO 45 3,9 C 23,5 C
25.05.2012 13:41 23,6 C 28 % 1028,7 hPa 0,0 l/m 13,3 km/h (3 Bft) SO 135 4,0 C 23,6 C
25.05.2012 13:46 23,8 C 28 % 1028,6 hPa 0,0 l/m 11,9 km/h (2 Bft) O-SO 112 4,2 C 23,8 C
25.05.2012 13:51 23,8 C 28 % 1028,6 hPa 0,0 l/m 5,0 km/h (1 Bft) O-NO 67 4,2 C 23,8 C
25.05.2012 13:56 23,9 C 27 % 1028,4 hPa 0,0 l/m 8,6 km/h (2 Bft) O 90 3,8 C 23,9 C
25.05.2012 14:01 24,1 C 27 % 1028,6 hPa 0,0 l/m 16,9 km/h (3 Bft) O-NO 67 3,9 C 24,1 C
25.05.2012 14:06 24,0 C 27 % 1028,4 hPa 0,0 l/m 6,5 km/h (2 Bft) N-NO 22 3,8 C 24,0 C
25.05.2012 14:11 24,0 C 27 % 1028,3 hPa 0,0 l/m 7,2 km/h (2 Bft) O-NO 67 3,8 C 24,0 C
25.05.2012 14:16 24,1 C 27 % 1028,3 hPa 0,0 l/m 13,7 km/h (3 Bft) O-SO 112 3,9 C 24,1 C
25.05.2012 14:21 24,1 C 26 % 1028,3 hPa 0,0 l/m 10,1 km/h (2 Bft) O 90 3,4 C 24,1 C
25.05.2012 14:26 24,2 C 26 % 1028,3 hPa 0,0 l/m 8,3 km/h (2 Bft) O-NO 67 3,5 C 24,2 C
25.05.2012 14:31 24,2 C 27 % 1028,1 hPa 0,0 l/m 13,7 km/h (3 Bft) NO 45 4,0 C 24,2 C
25.05.2012 14:36 24,4 C 27 % 1028,0 hPa 0,0 l/m 9,4 km/h (2 Bft) O 90 4,2 C 24,4 C
25.05.2012 14:41 24,5 C 27 % 1028,1 hPa 0,0 l/m 7,2 km/h (2 Bft) O 90 4,3 C 24,5 C
25.05.2012 14:46 24,6 C 27 % 1028,0 hPa 0,0 l/m 16,2 km/h (3 Bft) O-NO 67 4,4 C 24,6 C
25.05.2012 14:51 24,4 C 26 % 1028,1 hPa 0,0 l/m 7,2 km/h (2 Bft) NO 45 3,6 C 24,4 C
25.05.2012 14:56 24,4 C 27 % 1028,0 hPa 0,0 l/m 1,4 km/h (1 Bft) O-NO 67 4,2 C 24,4 C
25.05.2012 15:01 24,4 C 27 % 1028,0 hPa 0,0 l/m 10,4 km/h (2 Bft) O-NO 67 4,2 C 24,4 C
25.05.2012 15:06 24,5 C 27 % 1027,8 hPa 0,0 l/m 3,2 km/h (1 Bft) W-NW 292 4,3 C 24,5 C
25.05.2012 15:11 24,8 C 27 % 1027,9 hPa 0,0 l/m 13,3 km/h (3 Bft) O-NO 67 4,5 C 24,8 C
25.05.2012 15:16 24,8 C 27 % 1027,8 hPa 0,0 l/m 14,4 km/h (3 Bft) N-NO 22 4,5 C 24,8 C
25.05.2012 15:21 24,6 C 28 % 1027,7 hPa 0,0 l/m 7,9 km/h (2 Bft) NO 45 4,9 C 24,6 C
25.05.2012 15:26 24,8 C 27 % 1027,6 hPa 0,0 l/m 6,1 km/h (2 Bft) NO 45 4,5 C 24,8 C
25.05.2012 15:31 24,9 C 27 % 1027,6 hPa 0,0 l/m 18,7 km/h (3 Bft) O-NO 67 4,6 C 24,9 C
25.05.2012 15:36 24,9 C 27 % 1027,4 hPa 0,0 l/m 10,1 km/h (2 Bft) O-NO 67 4,6 C 24,9 C
25.05.2012 15:41 24,9 C 27 % 1027,5 hPa 0,0 l/m 4,0 km/h (1 Bft) O-NO 67 4,6 C 24,9 C
25.05.2012 15:46 24,9 C 27 % 1027,3 hPa 0,0 l/m 5,8 km/h (2 Bft) O-NO 67 4,6 C 24,9 C
25.05.2012 15:51 24,9 C 26 % 1027,3 hPa 0,0 l/m 10,8 km/h (2 Bft) NO 45 4,1 C 24,9 C
25.05.2012 15:56 24,8 C 27 % 1027,3 hPa 0,0 l/m 8,3 km/h (2 Bft) O-SO 112 4,5 C 24,8 C
25.05.2012 16:01 24,8 C 27 % 1027,2 hPa 0,0 l/m 19,1 km/h (3 Bft) NO 45 4,5 C 24,8 C
25.05.2012 16:06 24,7 C 27 % 1027,2 hPa 0,0 l/m 5,0 km/h (1 Bft) O 90 4,4 C 24,7 C
25.05.2012 16:11 24,7 C 27 % 1027,0 hPa 0,0 l/m 6,5 km/h (2 Bft) O-NO 67 4,4 C 24,7 C
25.05.2012 16:16 24,6 C 27 % 1026,9 hPa 0,0 l/m 14,8 km/h (3 Bft) O 90 4,4 C 24,6 C
25.05.2012 16:21 24,6 C 27 % 1027,0 hPa 0,0 l/m 21,2 km/h (4 Bft) O-NO 67 4,4 C 24,6 C
25.05.2012 16:26 24,5 C 27 % 1026,8 hPa 0,0 l/m 9,7 km/h (2 Bft) O 90 4,3 C 24,5 C
25.05.2012 16:31 24,6 C 27 % 1026,9 hPa 0,0 l/m 9,7 km/h (2 Bft) O 90 4,4 C 24,6 C
25.05.2012 16:36 24,6 C 26 % 1026,9 hPa 0,0 l/m 8,3 km/h (2 Bft) N-NO 22 3,8 C 24,6 C
25.05.2012 16:41 24,6 C 26 % 1026,8 hPa 0,0 l/m 16,9 km/h (3 Bft) NO 45 3,8 C 24,6 C
25.05.2012 16:46 24,6 C 27 % 1026,8 hPa 0,0 l/m 7,2 km/h (2 Bft) NO 45 4,4 C 24,6 C
25.05.2012 16:51 24,6 C 27 % 1026,8 hPa 0,0 l/m 6,1 km/h (2 Bft) O 90 4,4 C 24,6 C
25.05.2012 16:56 24,6 C 27 % 1026,7 hPa 0,0 l/m 22,3 km/h (4 Bft) O 90 4,4 C 24,6 C
25.05.2012 17:01 24,5 C 26 % 1026,6 hPa 0,0 l/m 10,1 km/h (2 Bft) NO 45 3,7 C 24,5 C
25.05.2012 17:06 24,3 C 27 % 1026,7 hPa 0,0 l/m 9,7 km/h (2 Bft) NO 45 4,1 C 24,3 C
25.05.2012 17:11 24,3 C 25 % 1026,6 hPa 0,0 l/m 16,6 km/h (3 Bft) O 90 3,0 C 24,3 C
25.05.2012 17:16 24,3 C 26 % 1026,6 hPa 0,0 l/m 8,6 km/h (2 Bft) O 90 3,6 C 24,3 C
25.05.2012 17:21 24,3 C 27 % 1026,6 hPa 0,0 l/m 8,3 km/h (2 Bft) NO 45 4,1 C 24,3 C
25.05.2012 17:26 24,4 C 27 % 1026,4 hPa 0,0 l/m 9,4 km/h (2 Bft) O-NO 67 4,2 C 24,4 C
25.05.2012 17:31 24,4 C 27 % 1026,4 hPa 0,0 l/m 8,3 km/h (2 Bft) O-NO 67 4,2 C 24,4 C
25.05.2012 17:36 24,5 C 27 % 1026,5 hPa 0,0 l/m 5,8 km/h (2 Bft) O-SO 112 4,3 C 24,5 C
25.05.2012 17:41 24,4 C 25 % 1026,2 hPa 0,0 l/m 14,4 km/h (3 Bft) N-NO 22 3,1 C 24,4 C
25.05.2012 17:46 24,4 C 25 % 1026,1 hPa 0,0 l/m 6,1 km/h (2 Bft) O-SO 112 3,1 C 24,4 C
25.05.2012 17:51 24,3 C 26 % 1026,2 hPa 0,0 l/m 14,4 km/h (3 Bft) O-NO 67 3,6 C 24,3 C
25.05.2012 17:56 24,3 C 25 % 1026,2 hPa 0,0 l/m 14,8 km/h (3 Bft) O-NO 67 3,0 C 24,3 C
25.05.2012 18:01 24,1 C 26 % 1026,3 hPa 0,0 l/m 14,0 km/h (3 Bft) N-NO 22 3,4 C 24,1 C
25.05.2012 18:06 24,1 C 26 % 1026,2 hPa 0,0 l/m 9,0 km/h (2 Bft) N-NO 22 3,4 C 24,1 C
25.05.2012 18:11 23,9 C 25 % 1026,1 hPa 0,0 l/m 17,6 km/h (3 Bft) O-NO 67 2,7 C 23,9 C
25.05.2012 18:16 23,9 C 26 % 1026,1 hPa 0,0 l/m 14,4 km/h (3 Bft) O 90 3,2 C 23,9 C
25.05.2012 18:21 23,9 C 25 % 1026,1 hPa 0,0 l/m 14,8 km/h (3 Bft) O-NO 67 2,7 C 23,9 C
25.05.2012 18:26 23,9 C 25 % 1026,1 hPa 0,0 l/m 4,0 km/h (1 Bft) N-NO 22 2,7 C 23,9 C
25.05.2012 18:31 23,8 C 25 % 1026,0 hPa 0,0 l/m 9,4 km/h (2 Bft) O-NO 67 2,6 C 23,8 C
25.05.2012 18:36 23,8 C 25 % 1026,0 hPa 0,0 l/m 10,1 km/h (2 Bft) O-NO 67 2,6 C 23,8 C
25.05.2012 18:41 23,6 C 25 % 1026,0 hPa 0,0 l/m 10,4 km/h (2 Bft) O 90 2,4 C 23,6 C
25.05.2012 18:46 23,4 C 25 % 1026,1 hPa 0,0 l/m 9,7 km/h (2 Bft) O-NO 67 2,3 C 23,4 C
25.05.2012 18:51 23,2 C 25 % 1026,1 hPa 0,0 l/m 9,4 km/h (2 Bft) NO 45 2,1 C 23,2 C
25.05.2012 18:56 23,1 C 26 % 1026,1 hPa 0,0 l/m 6,8 km/h (2 Bft) O 90 2,5 C 23,1 C
25.05.2012 19:01 23,1 C 26 % 1026,2 hPa 0,0 l/m 5,8 km/h (2 Bft) O 90 2,5 C 23,1 C
25.05.2012 19:06 22,9 C 26 % 1025,9 hPa 0,0 l/m 9,7 km/h (2 Bft) O-SO 112 2,4 C 22,9 C
25.05.2012 19:11 22,8 C 26 % 1026,2 hPa 0,0 l/m 13,7 km/h (3 Bft) O-NO 67 2,3 C 22,8 C
25.05.2012 19:16 22,6 C 26 % 1026,1 hPa 0,0 l/m 18,4 km/h (3 Bft) O 90 2,1 C 22,6 C
25.05.2012 19:21 22,4 C 26 % 1026,1 hPa 0,0 l/m 6,8 km/h (2 Bft) O-NO 67 2,0 C 22,4 C
25.05.2012 19:26 22,2 C 28 % 1026,2 hPa 0,0 l/m 11,9 km/h (2 Bft) NO 45 2,8 C 22,2 C
25.05.2012 19:31 22,1 C 28 % 1026,1 hPa 0,0 l/m 14,8 km/h (3 Bft) O-NO 67 2,7 C 22,1 C
25.05.2012 19:36 21,9 C 28 % 1026,1 hPa 0,0 l/m 6,5 km/h (2 Bft) O 90 2,6 C 21,9 C
25.05.2012 19:41 21,8 C 29 % 1026,1 hPa 0,0 l/m 11,9 km/h (2 Bft) N-NO 22 3,0 C 21,8 C
25.05.2012 19:46 21,6 C 29 % 1026,0 hPa 0,0 l/m 10,8 km/h (2 Bft) O 90 2,8 C 21,6 C
25.05.2012 19:51 21,4 C 29 % 1026,0 hPa 0,0 l/m 9,7 km/h (2 Bft) NO 45 2,6 C 21,4 C
25.05.2012 19:56 21,3 C 29 % 1025,9 hPa 0,0 l/m 5,4 km/h (1 Bft) O 90 2,5 C 21,3 C
25.05.2012 20:01 21,2 C 30 % 1025,9 hPa 0,0 l/m 14,0 km/h (3 Bft) O-NO 67 2,9 C 21,2 C
25.05.2012 20:06 21,0 C 30 % 1025,9 hPa 0,0 l/m 8,6 km/h (2 Bft) O 90 2,8 C 21,0 C
25.05.2012 20:11 20,9 C 31 % 1026,0 hPa 0,0 l/m 5,8 km/h (2 Bft) O-NO 67 3,1 C 20,9 C
25.05.2012 20:16 20,7 C 30 % 1026,1 hPa 0,0 l/m 5,4 km/h (1 Bft) O-NO 67 2,5 C 20,7 C
25.05.2012 20:21 20,5 C 30 % 1026,1 hPa 0,0 l/m 8,3 km/h (2 Bft) NO 45 2,3 C 20,5 C
25.05.2012 20:26 20,3 C 29 % 1026,2 hPa 0,0 l/m 2,9 km/h (1 Bft) NO 45 1,7 C 20,3 C
25.05.2012 20:31 20,1 C 30 % 1026,1 hPa 0,0 l/m 17,3 km/h (3 Bft) O 90 2,0 C 20,1 C
25.05.2012 20:36 19,9 C 30 % 1026,2 hPa 0,0 l/m 8,3 km/h (2 Bft) O-NO 67 1,8 C 19,9 C
25.05.2012 20:41 19,6 C 30 % 1026,1 hPa 0,0 l/m 5,0 km/h (1 Bft) O 90 1,6 C 19,6 C
25.05.2012 20:46 19,4 C 30 % 1026,0 hPa 0,0 l/m 6,1 km/h (2 Bft) O-NO 67 1,4 C 19,4 C
25.05.2012 20:51 19,3 C 30 % 1026,1 hPa 0,0 l/m 3,2 km/h (1 Bft) O 90 1,3 C 19,3 C
25.05.2012 20:56 19,1 C 30 % 1026,1 hPa 0,0 l/m 13,3 km/h (3 Bft) O-NO 67 1,1 C 19,1 C
25.05.2012 21:01 18,8 C 31 % 1026,1 hPa 0,0 l/m 6,8 km/h (2 Bft) SO 135 1,3 C 18,8 C
25.05.2012 21:06 18,6 C 31 % 1026,2 hPa 0,0 l/m 12,6 km/h (3 Bft) O-NO 67 1,1 C 18,6 C
25.05.2012 21:11 18,4 C 32 % 1026,2 hPa 0,0 l/m 8,6 km/h (2 Bft) O-SO 112 1,4 C 18,4 C
25.05.2012 21:16 18,3 C 32 % 1026,2 hPa 0,0 l/m 0,0 km/h (0 Bft) O 90 1,3 C 18,3 C
25.05.2012 21:21 18,1 C 32 % 1026,4 hPa 0,0 l/m 5,8 km/h (2 Bft) O 90 1,2 C 18,1 C
25.05.2012 21:26 17,9 C 33 % 1026,3 hPa 0,0 l/m 14,4 km/h (3 Bft) O-NO 67 1,4 C 17,9 C
25.05.2012 21:31 17,8 C 33 % 1026,2 hPa 0,0 l/m 7,2 km/h (2 Bft) NO 45 1,3 C 17,8 C
25.05.2012 21:36 17,6 C 34 % 1026,4 hPa 0,0 l/m 7,6 km/h (2 Bft) O 90 1,6 C 17,6 C
25.05.2012 21:41 17,4 C 35 % 1026,3 hPa 0,0 l/m 3,6 km/h (1 Bft) NO 45 1,8 C 17,4 C
25.05.2012 21:46 17,3 C 35 % 1026,3 hPa 0,0 l/m 4,3 km/h (1 Bft) O 90 1,7 C 17,3 C
25.05.2012 21:51 17,3 C 35 % 1026,3 hPa 0,0 l/m 5,0 km/h (1 Bft) NO 45 1,7 C 17,3 C
25.05.2012 21:56 17,1 C 36 % 1026,4 hPa 0,0 l/m 2,5 km/h (1 Bft) O-NO 67 1,9 C 17,1 C
25.05.2012 22:01 16,9 C 36 % 1026,4 hPa 0,0 l/m 6,8 km/h (2 Bft) O-NO 67 1,7 C 16,9 C
25.05.2012 22:06 16,8 C 36 % 1026,4 hPa 0,0 l/m 10,8 km/h (2 Bft) NO 45 1,7 C 16,8 C
25.05.2012 22:11 16,6 C 37 % 1026,5 hPa 0,0 l/m 7,9 km/h (2 Bft) O-NO 67 1,9 C 16,6 C
25.05.2012 22:16 16,4 C 37 % 1026,4 hPa 0,0 l/m 5,0 km/h (1 Bft) O-NO 67 1,7 C 16,4 C
25.05.2012 22:21 16,3 C 38 % 1026,4 hPa 0,0 l/m 6,8 km/h (2 Bft) O-NO 67 2,0 C 16,3 C
25.05.2012 22:26 16,2 C 38 % 1026,3 hPa 0,0 l/m 3,6 km/h (1 Bft) O-SO 112 1,9 C 16,2 C
25.05.2012 22:31 16,1 C 38 % 1026,5 hPa 0,0 l/m 4,7 km/h (1 Bft) N-NO 22 1,8 C 16,1 C
25.05.2012 22:36 16,0 C 39 % 1026,5 hPa 0,0 l/m 5,4 km/h (1 Bft) NO 45 2,1 C 16,0 C
25.05.2012 22:41 15,9 C 39 % 1026,5 hPa 0,0 l/m 2,5 km/h (1 Bft) O-NO 67 2,0 C 15,9 C
25.05.2012 22:46 15,9 C 39 % 1026,6 hPa 0,0 l/m 3,6 km/h (1 Bft) O 90 2,0 C 15,9 C
25.05.2012 22:51 15,8 C 40 % 1026,6 hPa 0,0 l/m 7,6 km/h (2 Bft) O 90 2,2 C 15,8 C
25.05.2012 22:56 15,8 C 40 % 1026,5 hPa 0,0 l/m 3,6 km/h (1 Bft) O 90 2,2 C 15,8 C
25.05.2012 23:01 15,7 C 40 % 1026,7 hPa 0,0 l/m 0,0 km/h (0 Bft) N-NO 22 2,1 C 15,7 C
25.05.2012 23:06 15,6 C 41 % 1026,6 hPa 0,0 l/m 4,3 km/h (1 Bft) O 90 2,4 C 15,6 C
25.05.2012 23:11 15,5 C 42 % 1026,6 hPa 0,0 l/m 5,8 km/h (2 Bft) NO 45 2,6 C 15,5 C
25.05.2012 23:16 15,4 C 42 % 1026,7 hPa 0,0 l/m 5,8 km/h (2 Bft) O-NO 67 2,6 C 15,4 C
25.05.2012 23:21 15,3 C 43 % 1026,7 hPa 0,0 l/m 4,0 km/h (1 Bft) O-NO 67 2,8 C 15,3 C
25.05.2012 23:26 15,2 C 43 % 1026,7 hPa 0,0 l/m 5,0 km/h (1 Bft) O-SO 112 2,7 C 15,2 C
25.05.2012 23:31 15,1 C 43 % 1026,7 hPa 0,0 l/m 1,1 km/h (1 Bft) O-SO 112 2,6 C 15,1 C
25.05.2012 23:36 14,9 C 44 % 1026,7 hPa 0,0 l/m 2,5 km/h (1 Bft) O-NO 67 2,8 C 14,9 C
25.05.2012 23:41 14,9 C 44 % 1026,8 hPa 0,0 l/m 0,0 km/h (0 Bft) NO 45 2,8 C 14,9 C
25.05.2012 23:46 14,9 C 44 % 1026,7 hPa 0,0 l/m 4,3 km/h (1 Bft) O 90 2,8 C 14,9 C
25.05.2012 23:51 14,9 C 45 % 1026,7 hPa 0,0 l/m 5,8 km/h (2 Bft) O 90 3,1 C 14,9 C
25.05.2012 23:56 14,8 C 45 % 1026,8 hPa 0,0 l/m 0,0 km/h (0 Bft) O-SO 112 3,0 C 14,8 C
_ Min-Zeit 05:21 17:11 19:06 - 01:41 - - 20:56 05:21
Minimum _ 10,7 C 25 % 1025,9 hPa - 0,0 km/h (0 Bft) - - 1,1 C 10,7 C
_ Max-Zeit 15:31 05:36 01:56 00:01 16:56 - - 07:26 15:31
Maximum _ 24,9 C 59 % 1031,0 hPa 0,0 l/m 22,3 km/h
O (4 Bft)
- - 5,0 C 24,9 C
Durchschnitt _ 18,3 C 38 % 1028,8 hPa #0,0 l/m 6,8 km/h (2 Bft) O-NO - 3,3 C 18,3 C
(c) by David Heller